sensor_id;sensor_type;location;lat;lon;timestamp;P1;durP1;ratioP1;P2;durP2;ratioP2
19800;SDS011;10060;48.274;12.214;2023-06-04T00:01:00;7.65;;;5.20;;
19800;SDS011;10060;48.274;12.214;2023-06-04T00:04:02;7.65;;;5.35;;
19800;SDS011;10060;48.274;12.214;2023-06-04T00:07:06;8.82;;;4.65;;
19800;SDS011;10060;48.274;12.214;2023-06-04T00:10:08;8.57;;;4.75;;
19800;SDS011;10060;48.274;12.214;2023-06-04T00:13:10;16.42;;;5.35;;
19800;SDS011;10060;48.274;12.214;2023-06-04T00:16:13;10.63;;;5.47;;
19800;SDS011;10060;48.274;12.214;2023-06-04T00:19:15;9.07;;;5.40;;
19800;SDS011;10060;48.274;12.214;2023-06-04T00:22:18;8.82;;;5.25;;
19800;SDS011;10060;48.274;12.214;2023-06-04T00:25:20;6.65;;;4.97;;
19800;SDS011;10060;48.274;12.214;2023-06-04T00:28:23;8.77;;;4.70;;
19800;SDS011;10060;48.274;12.214;2023-06-04T00:31:25;6.28;;;4.90;;
19800;SDS011;10060;48.274;12.214;2023-06-04T00:34:27;9.75;;;5.60;;
19800;SDS011;10060;48.274;12.214;2023-06-04T00:37:30;8.57;;;5.13;;
19800;SDS011;10060;48.274;12.214;2023-06-04T00:40:32;8.88;;;5.55;;
19800;SDS011;10060;48.274;12.214;2023-06-04T00:43:35;7.97;;;5.15;;
19800;SDS011;10060;48.274;12.214;2023-06-04T00:46:37;10.13;;;5.32;;
19800;SDS011;10060;48.274;12.214;2023-06-04T00:49:39;5.85;;;4.70;;
19800;SDS011;10060;48.274;12.214;2023-06-04T00:52:43;9.10;;;5.57;;
19800;SDS011;10060;48.274;12.214;2023-06-04T00:55:45;9.07;;;5.82;;
19800;SDS011;10060;48.274;12.214;2023-06-04T00:58:47;9.88;;;5.57;;
19800;SDS011;10060;48.274;12.214;2023-06-04T01:01:51;8.30;;;6.20;;
19800;SDS011;10060;48.274;12.214;2023-06-04T01:04:54;8.32;;;6.03;;
19800;SDS011;10060;48.274;12.214;2023-06-04T01:08:01;11.45;;;5.68;;
19800;SDS011;10060;48.274;12.214;2023-06-04T01:11:03;12.32;;;6.05;;
19800;SDS011;10060;48.274;12.214;2023-06-04T01:14:06;6.97;;;5.28;;
19800;SDS011;10060;48.274;12.214;2023-06-04T01:17:11;7.80;;;5.68;;
19800;SDS011;10060;48.274;12.214;2023-06-04T01:23:36;6.65;;;5.57;;
19800;SDS011;10060;48.274;12.214;2023-06-04T01:26:42;8.17;;;5.50;;
19800;SDS011;10060;48.274;12.214;2023-06-04T01:29:44;9.98;;;5.75;;
19800;SDS011;10060;48.274;12.214;2023-06-04T01:32:49;9.38;;;5.13;;
19800;SDS011;10060;48.274;12.214;2023-06-04T01:35:51;9.20;;;5.43;;
19800;SDS011;10060;48.274;12.214;2023-06-04T01:38:54;9.73;;;5.67;;
19800;SDS011;10060;48.274;12.214;2023-06-04T01:41:57;10.37;;;5.50;;
19800;SDS011;10060;48.274;12.214;2023-06-04T01:44:59;7.50;;;5.13;;
19800;SDS011;10060;48.274;12.214;2023-06-04T01:48:01;8.65;;;4.75;;
19800;SDS011;10060;48.274;12.214;2023-06-04T01:51:03;9.03;;;5.27;;
19800;SDS011;10060;48.274;12.214;2023-06-04T01:54:07;7.10;;;4.30;;
19800;SDS011;10060;48.274;12.214;2023-06-04T01:57:09;7.80;;;4.77;;
19800;SDS011;10060;48.274;12.214;2023-06-04T02:00:11;5.47;;;4.18;;
19800;SDS011;10060;48.274;12.214;2023-06-04T02:03:14;9.27;;;4.20;;
19800;SDS011;10060;48.274;12.214;2023-06-04T02:06:16;6.07;;;4.67;;
19800;SDS011;10060;48.274;12.214;2023-06-04T02:09:20;5.55;;;3.80;;
19800;SDS011;10060;48.274;12.214;2023-06-04T02:12:22;5.47;;;4.30;;
19800;SDS011;10060;48.274;12.214;2023-06-04T02:15:24;5.07;;;4.23;;
19800;SDS011;10060;48.274;12.214;2023-06-04T02:18:26;6.80;;;3.93;;
19800;SDS011;10060;48.274;12.214;2023-06-04T02:21:29;7.37;;;4.80;;
19800;SDS011;10060;48.274;12.214;2023-06-04T02:24:32;18.53;;;5.10;;
19800;SDS011;10060;48.274;12.214;2023-06-04T02:27:34;5.07;;;4.13;;
19800;SDS011;10060;48.274;12.214;2023-06-04T02:30:36;7.40;;;4.70;;
19800;SDS011;10060;48.274;12.214;2023-06-04T02:33:38;7.30;;;4.77;;
19800;SDS011;10060;48.274;12.214;2023-06-04T02:36:40;7.17;;;5.03;;
19800;SDS011;10060;48.274;12.214;2023-06-04T02:39:52;10.03;;;4.97;;
19800;SDS011;10060;48.274;12.214;2023-06-04T02:42:54;7.20;;;5.00;;
19800;SDS011;10060;48.274;12.214;2023-06-04T02:45:56;7.37;;;5.40;;
19800;SDS011;10060;48.274;12.214;2023-06-04T02:48:58;7.07;;;5.27;;
19800;SDS011;10060;48.274;12.214;2023-06-04T02:52:00;9.17;;;5.03;;
19800;SDS011;10060;48.274;12.214;2023-06-04T02:55:05;8.57;;;5.60;;
19800;SDS011;10060;48.274;12.214;2023-06-04T02:58:07;7.27;;;5.40;;
19800;SDS011;10060;48.274;12.214;2023-06-04T03:01:12;10.33;;;5.20;;
19800;SDS011;10060;48.274;12.214;2023-06-04T03:04:19;8.73;;;5.70;;
19800;SDS011;10060;48.274;12.214;2023-06-04T03:07:21;8.27;;;6.20;;
19800;SDS011;10060;48.274;12.214;2023-06-04T03:10:24;10.10;;;5.73;;
19800;SDS011;10060;48.274;12.214;2023-06-04T03:13:26;11.07;;;5.07;;
19800;SDS011;10060;48.274;12.214;2023-06-04T03:16:28;8.33;;;5.10;;
19800;SDS011;10060;48.274;12.214;2023-06-04T03:19:30;8.23;;;5.10;;
19800;SDS011;10060;48.274;12.214;2023-06-04T03:22:32;10.40;;;6.20;;
19800;SDS011;10060;48.274;12.214;2023-06-04T03:25:36;11.60;;;7.63;;
19800;SDS011;10060;48.274;12.214;2023-06-04T03:28:39;10.53;;;8.07;;
19800;SDS011;10060;48.274;12.214;2023-06-04T03:31:43;13.70;;;8.23;;
19800;SDS011;10060;48.274;12.214;2023-06-04T03:34:45;13.27;;;8.63;;
19800;SDS011;10060;48.274;12.214;2023-06-04T03:37:48;11.30;;;8.60;;
19800;SDS011;10060;48.274;12.214;2023-06-04T03:40:51;10.50;;;8.13;;
19800;SDS011;10060;48.274;12.214;2023-06-04T03:43:53;15.80;;;11.00;;
19800;SDS011;10060;48.274;12.214;2023-06-04T03:46:55;18.77;;;11.97;;
19800;SDS011;10060;48.274;12.214;2023-06-04T03:49:57;15.17;;;10.10;;
19800;SDS011;10060;48.274;12.214;2023-06-04T03:52:59;17.73;;;11.60;;
19800;SDS011;10060;48.274;12.214;2023-06-04T03:56:03;12.73;;;8.77;;
19800;SDS011;10060;48.274;12.214;2023-06-04T03:59:05;13.13;;;9.27;;
19800;SDS011;10060;48.274;12.214;2023-06-04T04:02:07;14.53;;;9.60;;
19800;SDS011;10060;48.274;12.214;2023-06-04T04:05:09;12.37;;;8.73;;
19800;SDS011;10060;48.274;12.214;2023-06-04T04:08:11;13.53;;;8.37;;
19800;SDS011;10060;48.274;12.214;2023-06-04T04:11:17;12.43;;;8.13;;
19800;SDS011;10060;48.274;12.214;2023-06-04T04:14:19;10.83;;;8.67;;
19800;SDS011;10060;48.274;12.214;2023-06-04T04:17:21;11.77;;;8.53;;
19800;SDS011;10060;48.274;12.214;2023-06-04T04:20:23;11.03;;;8.27;;
19800;SDS011;10060;48.274;12.214;2023-06-04T04:23:26;7.27;;;5.70;;
19800;SDS011;10060;48.274;12.214;2023-06-04T04:26:30;6.73;;;5.30;;
19800;SDS011;10060;48.274;12.214;2023-06-04T04:29:32;8.43;;;5.70;;
19800;SDS011;10060;48.274;12.214;2023-06-04T04:32:34;10.70;;;5.63;;
19800;SDS011;10060;48.274;12.214;2023-06-04T04:35:38;6.13;;;4.37;;
19800;SDS011;10060;48.274;12.214;2023-06-04T04:38:42;7.57;;;4.82;;
19800;SDS011;10060;48.274;12.214;2023-06-04T04:41:46;7.32;;;5.00;;
19800;SDS011;10060;48.274;12.214;2023-06-04T04:44:48;7.15;;;4.35;;
19800;SDS011;10060;48.274;12.214;2023-06-04T04:47:50;6.30;;;4.10;;
19800;SDS011;10060;48.274;12.214;2023-06-04T04:50:53;6.22;;;4.18;;
19800;SDS011;10060;48.274;12.214;2023-06-04T04:53:55;7.25;;;4.50;;
19800;SDS011;10060;48.274;12.214;2023-06-04T04:56:58;5.78;;;4.15;;
19800;SDS011;10060;48.274;12.214;2023-06-04T05:00:00;8.30;;;3.83;;
19800;SDS011;10060;48.274;12.214;2023-06-04T05:03:05;6.47;;;4.18;;
19800;SDS011;10060;48.274;12.214;2023-06-04T05:06:07;5.67;;;4.30;;
19800;SDS011;10060;48.274;12.214;2023-06-04T05:09:09;6.00;;;4.40;;
19800;SDS011;10060;48.274;12.214;2023-06-04T05:12:13;5.53;;;4.00;;
19800;SDS011;10060;48.274;12.214;2023-06-04T05:15:15;5.00;;;4.10;;
19800;SDS011;10060;48.274;12.214;2023-06-04T05:18:18;6.07;;;4.32;;
19800;SDS011;10060;48.274;12.214;2023-06-04T05:21:21;7.33;;;4.17;;
19800;SDS011;10060;48.274;12.214;2023-06-04T05:24:24;4.73;;;3.90;;
19800;SDS011;10060;48.274;12.214;2023-06-04T05:27:27;6.00;;;3.60;;
19800;SDS011;10060;48.274;12.214;2023-06-04T05:30:31;5.72;;;3.83;;
19800;SDS011;10060;48.274;12.214;2023-06-04T05:33:33;4.70;;;3.92;;
19800;SDS011;10060;48.274;12.214;2023-06-04T05:36:35;4.32;;;3.42;;
19800;SDS011;10060;48.274;12.214;2023-06-04T05:39:37;6.63;;;3.60;;
19800;SDS011;10060;48.274;12.214;2023-06-04T05:42:41;5.80;;;4.00;;
19800;SDS011;10060;48.274;12.214;2023-06-04T05:45:43;7.38;;;3.47;;
19800;SDS011;10060;48.274;12.214;2023-06-04T05:48:45;4.85;;;3.40;;
19800;SDS011;10060;48.274;12.214;2023-06-04T05:51:47;4.25;;;3.45;;
19800;SDS011;10060;48.274;12.214;2023-06-04T05:54:49;5.20;;;3.40;;
19800;SDS011;10060;48.274;12.214;2023-06-04T05:57:53;9.75;;;3.80;;
19800;SDS011;10060;48.274;12.214;2023-06-04T06:00:55;7.13;;;2.97;;
19800;SDS011;10060;48.274;12.214;2023-06-04T06:03:57;3.78;;;2.90;;
19800;SDS011;10060;48.274;12.214;2023-06-04T06:06:59;5.43;;;3.25;;
19800;SDS011;10060;48.274;12.214;2023-06-04T06:10:01;4.93;;;3.17;;
19800;SDS011;10060;48.274;12.214;2023-06-04T06:13:05;5.72;;;3.13;;
19800;SDS011;10060;48.274;12.214;2023-06-04T06:16:07;4.88;;;3.42;;
19800;SDS011;10060;48.274;12.214;2023-06-04T06:19:09;4.15;;;2.78;;
19800;SDS011;10060;48.274;12.214;2023-06-04T06:22:12;6.00;;;2.97;;
19800;SDS011;10060;48.274;12.214;2023-06-04T06:25:15;5.38;;;3.22;;
19800;SDS011;10060;48.274;12.214;2023-06-04T06:28:18;6.85;;;3.50;;
19800;SDS011;10060;48.274;12.214;2023-06-04T06:31:21;5.20;;;3.17;;
19800;SDS011;10060;48.274;12.214;2023-06-04T06:34:23;3.40;;;2.67;;
19800;SDS011;10060;48.274;12.214;2023-06-04T06:37:25;3.83;;;2.95;;
19800;SDS011;10060;48.274;12.214;2023-06-04T06:40:27;6.85;;;2.60;;
19800;SDS011;10060;48.274;12.214;2023-06-04T06:43:32;3.10;;;2.53;;
19800;SDS011;10060;48.274;12.214;2023-06-04T06:46:34;4.93;;;2.70;;
19800;SDS011;10060;48.274;12.214;2023-06-04T06:49:36;7.05;;;2.92;;
19800;SDS011;10060;48.274;12.214;2023-06-04T06:52:38;4.68;;;2.65;;
19800;SDS011;10060;48.274;12.214;2023-06-04T06:55:40;4.35;;;2.72;;
19800;SDS011;10060;48.274;12.214;2023-06-04T06:58:44;7.80;;;2.90;;
19800;SDS011;10060;48.274;12.214;2023-06-04T07:01:46;4.40;;;2.35;;
19800;SDS011;10060;48.274;12.214;2023-06-04T07:04:48;5.25;;;3.35;;
19800;SDS011;10060;48.274;12.214;2023-06-04T07:07:50;4.88;;;2.60;;
19800;SDS011;10060;48.274;12.214;2023-06-04T07:10:52;8.05;;;2.53;;
19800;SDS011;10060;48.274;12.214;2023-06-04T07:13:56;6.40;;;2.85;;
19800;SDS011;10060;48.274;12.214;2023-06-04T07:16:58;3.80;;;2.67;;
19800;SDS011;10060;48.274;12.214;2023-06-04T07:20:00;3.83;;;2.50;;
19800;SDS011;10060;48.274;12.214;2023-06-04T07:23:03;4.68;;;2.60;;
19800;SDS011;10060;48.274;12.214;2023-06-04T07:26:07;8.68;;;2.83;;
19800;SDS011;10060;48.274;12.214;2023-06-04T07:29:10;2.95;;;2.45;;
19800;SDS011;10060;48.274;12.214;2023-06-04T07:32:12;3.95;;;2.50;;
19800;SDS011;10060;48.274;12.214;2023-06-04T07:35:15;4.85;;;2.30;;
19800;SDS011;10060;48.274;12.214;2023-06-04T07:38:17;4.45;;;2.60;;
19800;SDS011;10060;48.274;12.214;2023-06-04T07:41:20;3.75;;;2.67;;
19800;SDS011;10060;48.274;12.214;2023-06-04T07:44:23;4.78;;;3.10;;
19800;SDS011;10060;48.274;12.214;2023-06-04T07:47:25;4.05;;;2.47;;
19800;SDS011;10060;48.274;12.214;2023-06-04T07:50:27;4.15;;;2.58;;
19800;SDS011;10060;48.274;12.214;2023-06-04T07:53:30;4.72;;;2.88;;
19800;SDS011;10060;48.274;12.214;2023-06-04T07:56:32;4.03;;;2.90;;
19800;SDS011;10060;48.274;12.214;2023-06-04T07:59:36;3.88;;;2.85;;
19800;SDS011;10060;48.274;12.214;2023-06-04T08:02:38;4.38;;;2.83;;
19800;SDS011;10060;48.274;12.214;2023-06-04T08:05:41;5.78;;;2.80;;
19800;SDS011;10060;48.274;12.214;2023-06-04T08:08:43;7.13;;;2.50;;
19800;SDS011;10060;48.274;12.214;2023-06-04T08:11:45;5.10;;;2.65;;
19800;SDS011;10060;48.274;12.214;2023-06-04T08:14:50;5.65;;;2.72;;
19800;SDS011;10060;48.274;12.214;2023-06-04T08:17:56;6.72;;;2.80;;
19800;SDS011;10060;48.274;12.214;2023-06-04T08:20:58;5.03;;;2.80;;
19800;SDS011;10060;48.274;12.214;2023-06-04T08:24:01;3.97;;;2.67;;
19800;SDS011;10060;48.274;12.214;2023-06-04T08:27:03;5.65;;;2.58;;
19800;SDS011;10060;48.274;12.214;2023-06-04T08:30:08;5.10;;;2.90;;
19800;SDS011;10060;48.274;12.214;2023-06-04T08:33:10;5.18;;;2.92;;
19800;SDS011;10060;48.274;12.214;2023-06-04T08:36:12;5.45;;;2.97;;
19800;SDS011;10060;48.274;12.214;2023-06-04T08:39:15;4.65;;;2.92;;
19800;SDS011;10060;48.274;12.214;2023-06-04T08:42:18;4.88;;;2.83;;
19800;SDS011;10060;48.274;12.214;2023-06-04T08:45:25;7.20;;;3.00;;
19800;SDS011;10060;48.274;12.214;2023-06-04T08:48:27;3.78;;;2.80;;
19800;SDS011;10060;48.274;12.214;2023-06-04T08:51:30;3.33;;;2.75;;
19800;SDS011;10060;48.274;12.214;2023-06-04T08:54:34;3.20;;;2.63;;
19800;SDS011;10060;48.274;12.214;2023-06-04T08:57:36;4.28;;;2.75;;
19800;SDS011;10060;48.274;12.214;2023-06-04T09:00:40;6.15;;;2.75;;
19800;SDS011;10060;48.274;12.214;2023-06-04T09:03:43;4.20;;;2.75;;
19800;SDS011;10060;48.274;12.214;2023-06-04T09:06:45;6.20;;;3.17;;
19800;SDS011;10060;48.274;12.214;2023-06-04T09:09:48;5.93;;;2.95;;
19800;SDS011;10060;48.274;12.214;2023-06-04T09:12:50;5.85;;;2.70;;
19800;SDS011;10060;48.274;12.214;2023-06-04T09:16:00;5.38;;;2.97;;
19800;SDS011;10060;48.274;12.214;2023-06-04T09:19:02;5.18;;;3.70;;
19800;SDS011;10060;48.274;12.214;2023-06-04T09:22:05;4.05;;;2.80;;
19800;SDS011;10060;48.274;12.214;2023-06-04T09:25:08;4.07;;;2.60;;
19800;SDS011;10060;48.274;12.214;2023-06-04T09:28:20;4.88;;;3.00;;
19800;SDS011;10060;48.274;12.214;2023-06-04T09:31:24;4.65;;;2.95;;
19800;SDS011;10060;48.274;12.214;2023-06-04T09:34:27;6.95;;;2.92;;
19800;SDS011;10060;48.274;12.214;2023-06-04T09:37:29;4.38;;;2.63;;
19800;SDS011;10060;48.274;12.214;2023-06-04T09:40:35;6.93;;;2.92;;
19800;SDS011;10060;48.274;12.214;2023-06-04T09:43:37;4.85;;;3.17;;
19800;SDS011;10060;48.274;12.214;2023-06-04T09:46:40;6.13;;;2.65;;
19800;SDS011;10060;48.274;12.214;2023-06-04T09:49:43;4.93;;;2.90;;
19800;SDS011;10060;48.274;12.214;2023-06-04T09:52:45;6.93;;;3.20;;
19800;SDS011;10060;48.274;12.214;2023-06-04T09:55:55;4.38;;;2.55;;
19800;SDS011;10060;48.274;12.214;2023-06-04T09:58:58;6.18;;;2.92;;
19800;SDS011;10060;48.274;12.214;2023-06-04T10:02:03;3.28;;;2.45;;
19800;SDS011;10060;48.274;12.214;2023-06-04T10:05:05;5.40;;;2.70;;
19800;SDS011;10060;48.274;12.214;2023-06-04T10:08:09;3.65;;;2.63;;
19800;SDS011;10060;48.274;12.214;2023-06-04T10:11:13;6.43;;;2.78;;
19800;SDS011;10060;48.274;12.214;2023-06-04T10:14:16;4.65;;;2.67;;
19800;SDS011;10060;48.274;12.214;2023-06-04T10:17:23;6.93;;;2.95;;
19800;SDS011;10060;48.274;12.214;2023-06-04T10:20:25;4.95;;;3.20;;
19800;SDS011;10060;48.274;12.214;2023-06-04T10:23:27;5.47;;;2.75;;
19800;SDS011;10060;48.274;12.214;2023-06-04T10:26:30;4.47;;;2.70;;
19800;SDS011;10060;48.274;12.214;2023-06-04T10:29:34;6.28;;;2.55;;
19800;SDS011;10060;48.274;12.214;2023-06-04T10:32:37;3.70;;;2.70;;
19800;SDS011;10060;48.274;12.214;2023-06-04T10:35:40;5.03;;;2.60;;
19800;SDS011;10060;48.274;12.214;2023-06-04T10:38:44;4.30;;;2.70;;
19800;SDS011;10060;48.274;12.214;2023-06-04T10:41:56;5.07;;;2.92;;
19800;SDS011;10060;48.274;12.214;2023-06-04T10:44:58;4.03;;;2.47;;
19800;SDS011;10060;48.274;12.214;2023-06-04T10:48:02;4.55;;;2.67;;
19800;SDS011;10060;48.274;12.214;2023-06-04T10:51:05;4.68;;;2.70;;
19800;SDS011;10060;48.274;12.214;2023-06-04T10:54:07;3.05;;;2.58;;
19800;SDS011;10060;48.274;12.214;2023-06-04T10:57:10;4.15;;;2.60;;
19800;SDS011;10060;48.274;12.214;2023-06-04T11:00:12;4.03;;;2.78;;
19800;SDS011;10060;48.274;12.214;2023-06-04T11:03:17;3.45;;;2.58;;
19800;SDS011;10060;48.274;12.214;2023-06-04T11:06:21;3.78;;;2.70;;
19800;SDS011;10060;48.274;12.214;2023-06-04T11:09:27;4.90;;;3.10;;
19800;SDS011;10060;48.274;12.214;2023-06-04T11:12:30;6.28;;;3.15;;
19800;SDS011;10060;48.274;12.214;2023-06-04T11:15:42;4.43;;;3.40;;
19800;SDS011;10060;48.274;12.214;2023-06-04T11:18:55;4.05;;;2.70;;
19800;SDS011;10060;48.274;12.214;2023-06-04T11:21:58;3.95;;;2.58;;
19800;SDS011;10060;48.274;12.214;2023-06-04T11:25:01;5.10;;;2.50;;
19800;SDS011;10060;48.274;12.214;2023-06-04T11:28:04;4.78;;;2.60;;
19800;SDS011;10060;48.274;12.214;2023-06-04T11:31:06;4.35;;;2.85;;
19800;SDS011;10060;48.274;12.214;2023-06-04T11:34:09;6.15;;;3.40;;
19800;SDS011;10060;48.274;12.214;2023-06-04T11:37:13;5.55;;;2.65;;
19800;SDS011;10060;48.274;12.214;2023-06-04T11:40:15;3.15;;;2.63;;
19800;SDS011;10060;48.274;12.214;2023-06-04T11:43:18;4.95;;;2.88;;
19800;SDS011;10060;48.274;12.214;2023-06-04T11:46:20;4.40;;;2.85;;
19800;SDS011;10060;48.274;12.214;2023-06-04T11:49:23;4.95;;;2.80;;
19800;SDS011;10060;48.274;12.214;2023-06-04T11:52:26;5.05;;;3.42;;
19800;SDS011;10060;48.274;12.214;2023-06-04T11:55:29;5.43;;;3.13;;
19800;SDS011;10060;48.274;12.214;2023-06-04T11:58:31;3.53;;;2.88;;
19800;SDS011;10060;48.274;12.214;2023-06-04T12:01:33;4.20;;;2.90;;
19800;SDS011;10060;48.274;12.214;2023-06-04T12:04:37;4.18;;;3.03;;
19800;SDS011;10060;48.274;12.214;2023-06-04T12:07:40;5.45;;;2.97;;
19800;SDS011;10060;48.274;12.214;2023-06-04T12:10:43;3.97;;;2.80;;
19800;SDS011;10060;48.274;12.214;2023-06-04T12:13:45;6.45;;;2.70;;
19800;SDS011;10060;48.274;12.214;2023-06-04T12:16:54;4.60;;;3.00;;
19800;SDS011;10060;48.274;12.214;2023-06-04T12:19:57;3.42;;;2.58;;
19800;SDS011;10060;48.274;12.214;2023-06-04T12:23:00;5.60;;;3.22;;
19800;SDS011;10060;48.274;12.214;2023-06-04T12:26:02;7.10;;;2.92;;
19800;SDS011;10060;48.274;12.214;2023-06-04T12:29:08;5.55;;;3.20;;
19800;SDS011;10060;48.274;12.214;2023-06-04T12:32:11;8.70;;;2.90;;
19800;SDS011;10060;48.274;12.214;2023-06-04T12:35:14;4.10;;;2.70;;
19800;SDS011;10060;48.274;12.214;2023-06-04T12:38:16;4.40;;;3.05;;
19800;SDS011;10060;48.274;12.214;2023-06-04T12:41:19;5.32;;;3.33;;
19800;SDS011;10060;48.274;12.214;2023-06-04T12:44:21;4.80;;;2.95;;
19800;SDS011;10060;48.274;12.214;2023-06-04T12:47:23;6.03;;;3.25;;
19800;SDS011;10060;48.274;12.214;2023-06-04T12:50:26;4.78;;;2.85;;
19800;SDS011;10060;48.274;12.214;2023-06-04T12:53:28;4.38;;;2.97;;
19800;SDS011;10060;48.274;12.214;2023-06-04T12:56:30;4.93;;;2.90;;
19800;SDS011;10060;48.274;12.214;2023-06-04T12:59:32;5.20;;;3.05;;
19800;SDS011;10060;48.274;12.214;2023-06-04T13:02:35;6.50;;;2.67;;
19800;SDS011;10060;48.274;12.214;2023-06-04T13:05:38;4.18;;;2.92;;
19800;SDS011;10060;48.274;12.214;2023-06-04T13:08:40;5.30;;;2.85;;
19800;SDS011;10060;48.274;12.214;2023-06-04T13:11:44;4.70;;;3.05;;
19800;SDS011;10060;48.274;12.214;2023-06-04T13:14:46;3.75;;;2.90;;
19800;SDS011;10060;48.274;12.214;2023-06-04T13:17:48;3.65;;;3.13;;
19800;SDS011;10060;48.274;12.214;2023-06-04T13:20:52;9.32;;;3.15;;
19800;SDS011;10060;48.274;12.214;2023-06-04T13:23:54;4.30;;;3.22;;
19800;SDS011;10060;48.274;12.214;2023-06-04T13:26:57;8.60;;;3.10;;
19800;SDS011;10060;48.274;12.214;2023-06-04T13:29:59;4.70;;;3.05;;
19800;SDS011;10060;48.274;12.214;2023-06-04T13:33:01;6.15;;;3.33;;
19800;SDS011;10060;48.274;12.214;2023-06-04T13:36:05;5.03;;;2.95;;
19800;SDS011;10060;48.274;12.214;2023-06-04T13:39:07;4.78;;;2.95;;
19800;SDS011;10060;48.274;12.214;2023-06-04T13:42:09;4.80;;;2.92;;
19800;SDS011;10060;48.274;12.214;2023-06-04T13:45:11;5.93;;;3.28;;
19800;SDS011;10060;48.274;12.214;2023-06-04T13:48:14;4.97;;;3.58;;
19800;SDS011;10060;48.274;12.214;2023-06-04T13:51:17;4.15;;;3.20;;
19800;SDS011;10060;48.274;12.214;2023-06-04T13:54:19;7.13;;;3.30;;
19800;SDS011;10060;48.274;12.214;2023-06-04T13:57:21;4.70;;;3.33;;
19800;SDS011;10060;48.274;12.214;2023-06-04T14:00:24;5.93;;;3.47;;
19800;SDS011;10060;48.274;12.214;2023-06-04T14:03:26;6.32;;;3.53;;
19800;SDS011;10060;48.274;12.214;2023-06-04T14:06:30;5.65;;;3.33;;
19800;SDS011;10060;48.274;12.214;2023-06-04T14:09:32;4.20;;;3.22;;
19800;SDS011;10060;48.274;12.214;2023-06-04T14:12:35;6.03;;;3.28;;
19800;SDS011;10060;48.274;12.214;2023-06-04T14:15:38;4.80;;;3.78;;
19800;SDS011;10060;48.274;12.214;2023-06-04T14:18:40;5.05;;;3.65;;
19800;SDS011;10060;48.274;12.214;2023-06-04T14:21:43;6.93;;;3.42;;
19800;SDS011;10060;48.274;12.214;2023-06-04T14:24:45;5.15;;;3.38;;
19800;SDS011;10060;48.274;12.214;2023-06-04T14:27:48;3.85;;;2.97;;
19800;SDS011;10060;48.274;12.214;2023-06-04T14:30:50;7.65;;;3.65;;
19800;SDS011;10060;48.274;12.214;2023-06-04T14:33:53;5.97;;;3.17;;
19800;SDS011;10060;48.274;12.214;2023-06-04T14:36:56;5.20;;;3.50;;
19800;SDS011;10060;48.274;12.214;2023-06-04T14:39:59;5.20;;;3.65;;
19800;SDS011;10060;48.274;12.214;2023-06-04T14:43:01;4.60;;;3.38;;
19800;SDS011;10060;48.274;12.214;2023-06-04T14:46:03;5.18;;;3.08;;
19800;SDS011;10060;48.274;12.214;2023-06-04T14:49:06;9.88;;;3.63;;
19800;SDS011;10060;48.274;12.214;2023-06-04T14:52:09;6.28;;;3.60;;
19800;SDS011;10060;48.274;12.214;2023-06-04T14:55:11;5.95;;;4.00;;
19800;SDS011;10060;48.274;12.214;2023-06-04T14:58:13;4.53;;;3.70;;
19800;SDS011;10060;48.274;12.214;2023-06-04T15:01:15;5.63;;;3.80;;
19800;SDS011;10060;48.274;12.214;2023-06-04T15:04:18;6.22;;;3.78;;
19800;SDS011;10060;48.274;12.214;2023-06-04T15:07:21;7.90;;;3.72;;
19800;SDS011;10060;48.274;12.214;2023-06-04T15:10:24;5.15;;;3.83;;
19800;SDS011;10060;48.274;12.214;2023-06-04T15:13:26;5.50;;;3.42;;
19800;SDS011;10060;48.274;12.214;2023-06-04T15:16:28;5.80;;;3.95;;
19800;SDS011;10060;48.274;12.214;2023-06-04T15:19:30;5.80;;;3.85;;
19800;SDS011;10060;48.274;12.214;2023-06-04T15:22:34;6.43;;;4.03;;
19800;SDS011;10060;48.274;12.214;2023-06-04T15:25:36;5.93;;;3.35;;
19800;SDS011;10060;48.274;12.214;2023-06-04T15:28:39;5.25;;;4.22;;
19800;SDS011;10060;48.274;12.214;2023-06-04T15:31:41;6.13;;;3.60;;
19800;SDS011;10060;48.274;12.214;2023-06-04T15:34:43;5.20;;;3.92;;
19800;SDS011;10060;48.274;12.214;2023-06-04T15:37:46;5.47;;;3.30;;
19800;SDS011;10060;48.274;12.214;2023-06-04T15:40:49;6.30;;;3.70;;
19800;SDS011;10060;48.274;12.214;2023-06-04T15:43:51;4.55;;;3.65;;
19800;SDS011;10060;48.274;12.214;2023-06-04T15:46:53;4.43;;;3.72;;
19800;SDS011;10060;48.274;12.214;2023-06-04T15:49:55;4.97;;;3.55;;
19800;SDS011;10060;48.274;12.214;2023-06-04T15:52:59;6.40;;;3.53;;
19800;SDS011;10060;48.274;12.214;2023-06-04T15:56:01;8.80;;;3.85;;
19800;SDS011;10060;48.274;12.214;2023-06-04T15:59:03;4.60;;;3.78;;
19800;SDS011;10060;48.274;12.214;2023-06-04T16:02:05;5.15;;;3.63;;
19800;SDS011;10060;48.274;12.214;2023-06-04T16:05:08;6.97;;;3.30;;
19800;SDS011;10060;48.274;12.214;2023-06-04T16:08:11;6.65;;;3.50;;
19800;SDS011;10060;48.274;12.214;2023-06-04T16:11:13;5.25;;;3.80;;
19800;SDS011;10060;48.274;12.214;2023-06-04T16:14:15;21.77;;;5.65;;
19800;SDS011;10060;48.274;12.214;2023-06-04T16:17:17;5.20;;;3.55;;
19800;SDS011;10060;48.274;12.214;2023-06-04T16:20:19;6.30;;;4.10;;
19800;SDS011;10060;48.274;12.214;2023-06-04T16:23:23;5.32;;;3.67;;
19800;SDS011;10060;48.274;12.214;2023-06-04T16:26:25;7.70;;;3.55;;
19800;SDS011;10060;48.274;12.214;2023-06-04T16:29:27;4.32;;;3.38;;
19800;SDS011;10060;48.274;12.214;2023-06-04T16:32:29;4.55;;;3.38;;
19800;SDS011;10060;48.274;12.214;2023-06-04T16:35:31;3.78;;;3.22;;
19800;SDS011;10060;48.274;12.214;2023-06-04T16:38:34;5.07;;;4.00;;
19800;SDS011;10060;48.274;12.214;2023-06-04T16:41:37;5.03;;;3.50;;
19800;SDS011;10060;48.274;12.214;2023-06-04T16:44:39;4.95;;;3.45;;
19800;SDS011;10060;48.274;12.214;2023-06-04T16:47:41;5.63;;;4.10;;
19800;SDS011;10060;48.274;12.214;2023-06-04T16:50:43;5.65;;;3.60;;
19800;SDS011;10060;48.274;12.214;2023-06-04T16:53:47;5.40;;;3.75;;
19800;SDS011;10060;48.274;12.214;2023-06-04T16:56:49;5.45;;;3.80;;
19800;SDS011;10060;48.274;12.214;2023-06-04T16:59:51;4.53;;;3.30;;
19800;SDS011;10060;48.274;12.214;2023-06-04T17:02:54;4.40;;;3.67;;
19800;SDS011;10060;48.274;12.214;2023-06-04T17:05:56;5.05;;;3.45;;
19800;SDS011;10060;48.274;12.214;2023-06-04T17:08:59;5.53;;;3.45;;
19800;SDS011;10060;48.274;12.214;2023-06-04T17:12:01;4.43;;;3.25;;
19800;SDS011;10060;48.274;12.214;2023-06-04T17:15:04;6.32;;;3.28;;
19800;SDS011;10060;48.274;12.214;2023-06-04T17:18:06;4.45;;;3.65;;
19800;SDS011;10060;48.274;12.214;2023-06-04T17:21:11;4.40;;;3.20;;
19800;SDS011;10060;48.274;12.214;2023-06-04T17:24:18;8.60;;;4.00;;
19800;SDS011;10060;48.274;12.214;2023-06-04T17:27:21;6.47;;;3.20;;
19800;SDS011;10060;48.274;12.214;2023-06-04T17:30:23;6.57;;;3.30;;
19800;SDS011;10060;48.274;12.214;2023-06-04T17:33:26;6.68;;;3.72;;
19800;SDS011;10060;48.274;12.214;2023-06-04T17:36:28;4.90;;;3.53;;
19800;SDS011;10060;48.274;12.214;2023-06-04T17:39:31;4.13;;;3.30;;
19800;SDS011;10060;48.274;12.214;2023-06-04T17:42:34;6.30;;;3.40;;
19800;SDS011;10060;48.274;12.214;2023-06-04T17:45:36;5.35;;;3.55;;
19800;SDS011;10060;48.274;12.214;2023-06-04T17:48:38;7.45;;;3.47;;
19800;SDS011;10060;48.274;12.214;2023-06-04T17:51:40;4.82;;;3.55;;
19800;SDS011;10060;48.274;12.214;2023-06-04T17:54:44;5.22;;;3.33;;
19800;SDS011;10060;48.274;12.214;2023-06-04T17:57:48;6.53;;;3.65;;
19800;SDS011;10060;48.274;12.214;2023-06-04T18:00:50;6.63;;;3.78;;
19800;SDS011;10060;48.274;12.214;2023-06-04T18:03:52;5.90;;;4.20;;
19800;SDS011;10060;48.274;12.214;2023-06-04T18:06:54;6.40;;;3.70;;